sensor_id;sensor_type;location;lat;lon;timestamp;pressure;altitude;pressure_sealevel;temperature;humidity
41706;BME280;27385;51.096;17.190;2024-01-15T00:01:43;98376.30;;;0.95;91.80
41706;BME280;27385;51.096;17.190;2024-01-15T00:04:38;98369.20;;;0.98;91.94
41706;BME280;27385;51.096;17.190;2024-01-15T00:07:30;98360.04;;;1.01;91.95
41706;BME280;27385;51.096;17.190;2024-01-15T00:10:21;98357.41;;;1.01;91.88
41706;BME280;27385;51.096;17.190;2024-01-15T00:13:12;98344.35;;;1.02;91.81
41706;BME280;27385;51.096;17.190;2024-01-15T00:16:04;98338.30;;;1.04;91.88
41706;BME280;27385;51.096;17.190;2024-01-15T00:18:55;98331.65;;;1.04;91.78
41706;BME280;27385;51.096;17.190;2024-01-15T00:21:46;98325.08;;;1.03;91.61
41706;BME280;27385;51.096;17.190;2024-01-15T00:24:37;98321.25;;;1.01;91.50
41706;BME280;27385;51.096;17.190;2024-01-15T00:27:28;98321.66;;;1.00;91.43
41706;BME280;27385;51.096;17.190;2024-01-15T00:30:19;98309.55;;;1.01;91.43
41706;BME280;27385;51.096;17.190;2024-01-15T00:33:10;98305.39;;;1.02;91.36
41706;BME280;27385;51.096;17.190;2024-01-15T00:36:01;98301.83;;;1.02;91.09
41706;BME280;27385;51.096;17.190;2024-01-15T00:38:52;98299.05;;;0.99;91.04
41706;BME280;27385;51.096;17.190;2024-01-15T00:41:43;98288.91;;;1.01;91.27
41706;BME280;27385;51.096;17.190;2024-01-15T00:44:34;98282.08;;;1.01;91.02
41706;BME280;27385;51.096;17.190;2024-01-15T00:47:25;98280.84;;;0.99;90.98
41706;BME280;27385;51.096;17.190;2024-01-15T00:50:16;98276.50;;;0.98;90.97
41706;BME280;27385;51.096;17.190;2024-01-15T00:53:08;98270.45;;;0.98;91.02
41706;BME280;27385;51.096;17.190;2024-01-15T00:55:59;98261.21;;;0.95;90.74
41706;BME280;27385;51.096;17.190;2024-01-15T00:58:50;98251.17;;;0.94;90.75
41706;BME280;27385;51.096;17.190;2024-01-15T01:01:41;98248.95;;;0.93;90.77
41706;BME280;27385;51.096;17.190;2024-01-15T01:04:32;98249.19;;;0.92;90.65
41706;BME280;27385;51.096;17.190;2024-01-15T01:07:24;98249.13;;;0.92;90.73
41706;BME280;27385;51.096;17.190;2024-01-15T01:10:15;98249.10;;;0.93;90.70
41706;BME280;27385;51.096;17.190;2024-01-15T01:13:06;98248.52;;;0.92;90.67
41706;BME280;27385;51.096;17.190;2024-01-15T01:15:57;98247.15;;;0.91;90.59
41706;BME280;27385;51.096;17.190;2024-01-15T01:18:48;98242.87;;;0.90;90.53
41706;BME280;27385;51.096;17.190;2024-01-15T01:21:40;98239.88;;;0.90;90.50
41706;BME280;27385;51.096;17.190;2024-01-15T01:24:31;98236.12;;;0.89;90.37
41706;BME280;27385;51.096;17.190;2024-01-15T01:27:23;98231.59;;;0.88;90.29
41706;BME280;27385;51.096;17.190;2024-01-15T01:30:14;98233.45;;;0.88;90.28
41706;BME280;27385;51.096;17.190;2024-01-15T01:33:05;98223.71;;;0.88;90.08
41706;BME280;27385;51.096;17.190;2024-01-15T01:35:56;98226.22;;;0.89;90.07
41706;BME280;27385;51.096;17.190;2024-01-15T01:38:47;98223.23;;;0.89;90.03
41706;BME280;27385;51.096;17.190;2024-01-15T01:41:40;98227.63;;;0.89;89.76
41706;BME280;27385;51.096;17.190;2024-01-15T01:44:31;98229.54;;;0.88;89.86
41706;BME280;27385;51.096;17.190;2024-01-15T01:47:22;98221.73;;;0.89;89.87
41706;BME280;27385;51.096;17.190;2024-01-15T01:50:16;98212.24;;;0.89;89.66
41706;BME280;27385;51.096;17.190;2024-01-15T01:53:07;98203.95;;;0.89;89.76
41706;BME280;27385;51.096;17.190;2024-01-15T01:55:59;98201.33;;;0.92;89.78
41706;BME280;27385;51.096;17.190;2024-01-15T01:58:50;98200.42;;;0.93;89.44
41706;BME280;27385;51.096;17.190;2024-01-15T02:01:42;98194.24;;;0.94;89.63
41706;BME280;27385;51.096;17.190;2024-01-15T02:04:34;98188.97;;;0.95;89.42
41706;BME280;27385;51.096;17.190;2024-01-15T02:07:26;98196.35;;;0.95;89.40
41706;BME280;27385;51.096;17.190;2024-01-15T02:10:18;98193.81;;;0.93;89.33
41706;BME280;27385;51.096;17.190;2024-01-15T02:13:09;98194.58;;;0.92;89.39
41706;BME280;27385;51.096;17.190;2024-01-15T02:16:00;98197.64;;;0.90;89.43
41706;BME280;27385;51.096;17.190;2024-01-15T02:18:50;98199.27;;;0.89;89.51
41706;BME280;27385;51.096;17.190;2024-01-15T02:21:41;98207.39;;;0.87;89.59
41706;BME280;27385;51.096;17.190;2024-01-15T02:24:30;98206.09;;;0.82;89.74
41706;BME280;27385;51.096;17.190;2024-01-15T02:27:22;98200.13;;;0.77;90.00
41706;BME280;27385;51.096;17.190;2024-01-15T02:30:13;98197.66;;;0.74;90.63
41706;BME280;27385;51.096;17.190;2024-01-15T02:33:04;98194.88;;;0.68;91.14
41706;BME280;27385;51.096;17.190;2024-01-15T02:35:55;98186.23;;;0.62;91.41
41706;BME280;27385;51.096;17.190;2024-01-15T02:38:46;98180.95;;;0.57;91.48
41706;BME280;27385;51.096;17.190;2024-01-15T02:41:37;98166.70;;;0.56;91.61
41706;BME280;27385;51.096;17.190;2024-01-15T02:44:28;98162.33;;;0.55;91.55
41706;BME280;27385;51.096;17.190;2024-01-15T02:47:20;98160.83;;;0.55;91.38
41706;BME280;27385;51.096;17.190;2024-01-15T02:50:11;98146.00;;;0.55;91.21
41706;BME280;27385;51.096;17.190;2024-01-15T02:53:02;98137.59;;;0.55;90.98
41706;BME280;27385;51.096;17.190;2024-01-15T02:55:52;98149.20;;;0.57;90.79
41706;BME280;27385;51.096;17.190;2024-01-15T02:58:44;98155.37;;;0.58;90.72
41706;BME280;27385;51.096;17.190;2024-01-15T03:01:34;98146.30;;;0.59;91.10
41706;BME280;27385;51.096;17.190;2024-01-15T03:04:25;98143.24;;;0.56;91.95
41706;BME280;27385;51.096;17.190;2024-01-15T03:07:16;98136.34;;;0.52;91.96
41706;BME280;27385;51.096;17.190;2024-01-15T03:10:08;98130.13;;;0.49;91.99
41706;BME280;27385;51.096;17.190;2024-01-15T03:13:00;98123.77;;;0.47;92.02
41706;BME280;27385;51.096;17.190;2024-01-15T03:15:51;98124.91;;;0.48;91.94
41706;BME280;27385;51.096;17.190;2024-01-15T03:18:42;98117.41;;;0.47;91.89
41706;BME280;27385;51.096;17.190;2024-01-15T03:21:33;98113.23;;;0.47;91.71
41706;BME280;27385;51.096;17.190;2024-01-15T03:24:24;98113.34;;;0.47;91.57
41706;BME280;27385;51.096;17.190;2024-01-15T03:27:15;98109.39;;;0.47;91.24
41706;BME280;27385;51.096;17.190;2024-01-15T03:30:05;98106.10;;;0.48;91.15
41706;BME280;27385;51.096;17.190;2024-01-15T03:32:56;98110.37;;;0.49;91.20
41706;BME280;27385;51.096;17.190;2024-01-15T03:35:47;98108.86;;;0.51;91.13
41706;BME280;27385;51.096;17.190;2024-01-15T03:38:40;98113.21;;;0.53;91.11
41706;BME280;27385;51.096;17.190;2024-01-15T03:41:32;98112.96;;;0.55;90.99
41706;BME280;27385;51.096;17.190;2024-01-15T03:44:23;98112.64;;;0.58;91.15
41706;BME280;27385;51.096;17.190;2024-01-15T03:47:14;98112.37;;;0.61;90.97
41706;BME280;27385;51.096;17.190;2024-01-15T03:50:06;98111.14;;;0.64;90.94
41706;BME280;27385;51.096;17.190;2024-01-15T03:52:57;98110.58;;;0.66;90.80
41706;BME280;27385;51.096;17.190;2024-01-15T03:55:48;98108.08;;;0.67;90.81
41706;BME280;27385;51.096;17.190;2024-01-15T03:58:39;98104.83;;;0.68;90.97
41706;BME280;27385;51.096;17.190;2024-01-15T04:01:30;98097.15;;;0.68;90.85
41706;BME280;27385;51.096;17.190;2024-01-15T04:04:20;98092.95;;;0.68;90.66
41706;BME280;27385;51.096;17.190;2024-01-15T04:07:11;98086.98;;;0.69;90.09
41706;BME280;27385;51.096;17.190;2024-01-15T04:10:02;98089.10;;;0.70;89.89
41706;BME280;27385;51.096;17.190;2024-01-15T04:12:54;98088.40;;;0.72;89.71
41706;BME280;27385;51.096;17.190;2024-01-15T04:15:44;98091.29;;;0.74;89.49
41706;BME280;27385;51.096;17.190;2024-01-15T04:18:35;98093.71;;;0.74;89.49
41706;BME280;27385;51.096;17.190;2024-01-15T04:21:26;98081.09;;;0.75;89.36
41706;BME280;27385;51.096;17.190;2024-01-15T04:24:17;98071.69;;;0.76;89.30
41706;BME280;27385;51.096;17.190;2024-01-15T04:27:08;98062.92;;;0.78;89.18
41706;BME280;27385;51.096;17.190;2024-01-15T04:30:00;98059.98;;;0.78;89.14
41706;BME280;27385;51.096;17.190;2024-01-15T04:32:51;98056.60;;;0.79;89.06
41706;BME280;27385;51.096;17.190;2024-01-15T04:35:42;98053.16;;;0.79;89.09
41706;BME280;27385;51.096;17.190;2024-01-15T04:38:33;98051.79;;;0.78;88.99
41706;BME280;27385;51.096;17.190;2024-01-15T04:41:25;98053.42;;;0.78;88.96
41706;BME280;27385;51.096;17.190;2024-01-15T04:44:17;98048.35;;;0.77;88.95
41706;BME280;27385;51.096;17.190;2024-01-15T04:47:08;98041.17;;;0.76;88.81
41706;BME280;27385;51.096;17.190;2024-01-15T04:49:58;98034.86;;;0.75;88.54
41706;BME280;27385;51.096;17.190;2024-01-15T04:52:49;98035.81;;;0.75;88.61
41706;BME280;27385;51.096;17.190;2024-01-15T04:55:41;98041.13;;;0.76;88.38
41706;BME280;27385;51.096;17.190;2024-01-15T04:58:30;98046.30;;;0.76;88.53
41706;BME280;27385;51.096;17.190;2024-01-15T05:01:21;98048.41;;;0.76;88.61
41706;BME280;27385;51.096;17.190;2024-01-15T05:04:12;98047.71;;;0.76;88.38
41706;BME280;27385;51.096;17.190;2024-01-15T05:07:03;98040.52;;;0.76;88.42
41706;BME280;27385;51.096;17.190;2024-01-15T05:09:54;98039.29;;;0.76;88.44
41706;BME280;27385;51.096;17.190;2024-01-15T05:12:45;98043.40;;;0.77;88.17
41706;BME280;27385;51.096;17.190;2024-01-15T05:15:35;98034.98;;;0.78;88.09
41706;BME280;27385;51.096;17.190;2024-01-15T05:18:27;98039.05;;;0.80;87.97
41706;BME280;27385;51.096;17.190;2024-01-15T05:21:17;98031.08;;;0.81;87.82
41706;BME280;27385;51.096;17.190;2024-01-15T05:24:09;98032.84;;;0.82;87.75
41706;BME280;27385;51.096;17.190;2024-01-15T05:27:00;98035.21;;;0.83;87.74
41706;BME280;27385;51.096;17.190;2024-01-15T05:29:50;98038.95;;;0.83;87.60
41706;BME280;27385;51.096;17.190;2024-01-15T05:32:41;98042.63;;;0.84;87.71
41706;BME280;27385;51.096;17.190;2024-01-15T05:35:32;98043.38;;;0.81;88.59
41706;BME280;27385;51.096;17.190;2024-01-15T05:38:23;98044.73;;;0.76;89.26
41706;BME280;27385;51.096;17.190;2024-01-15T05:41:14;98045.02;;;0.70;89.74
41706;BME280;27385;51.096;17.190;2024-01-15T05:44:05;98051.58;;;0.64;90.20
41706;BME280;27385;51.096;17.190;2024-01-15T05:46:56;98059.39;;;0.58;90.53
41706;BME280;27385;51.096;17.190;2024-01-15T05:49:47;98067.58;;;0.54;90.96
41706;BME280;27385;51.096;17.190;2024-01-15T05:52:36;98075.55;;;0.50;91.58
41706;BME280;27385;51.096;17.190;2024-01-15T05:55:27;98071.66;;;0.43;92.17
41706;BME280;27385;51.096;17.190;2024-01-15T05:58:18;98069.02;;;0.37;92.39
41706;BME280;27385;51.096;17.190;2024-01-15T06:01:09;98074.33;;;0.34;92.58
41706;BME280;27385;51.096;17.190;2024-01-15T06:04:00;98072.84;;;0.33;92.82
41706;BME280;27385;51.096;17.190;2024-01-15T06:06:51;98077.33;;;0.32;92.83
41706;BME280;27385;51.096;17.190;2024-01-15T06:09:42;98074.13;;;0.32;92.89
41706;BME280;27385;51.096;17.190;2024-01-15T06:12:33;98073.89;;;0.32;93.15
41706;BME280;27385;51.096;17.190;2024-01-15T06:15:24;98073.54;;;0.33;93.06
41706;BME280;27385;51.096;17.190;2024-01-15T06:18:15;98082.69;;;0.33;93.16
41706;BME280;27385;51.096;17.190;2024-01-15T06:21:06;98080.24;;;0.35;93.03
41706;BME280;27385;51.096;17.190;2024-01-15T06:23:57;98079.20;;;0.36;92.93
41706;BME280;27385;51.096;17.190;2024-01-15T06:26:49;98084.30;;;0.36;92.75
41706;BME280;27385;51.096;17.190;2024-01-15T06:29:44;98086.08;;;0.35;92.64
41706;BME280;27385;51.096;17.190;2024-01-15T06:32:35;98081.44;;;0.35;92.72
41706;BME280;27385;51.096;17.190;2024-01-15T06:35:26;98075.59;;;0.34;92.68
41706;BME280;27385;51.096;17.190;2024-01-15T06:38:17;98076.38;;;0.34;92.71
41706;BME280;27385;51.096;17.190;2024-01-15T06:41:08;98079.88;;;0.33;92.73
41706;BME280;27385;51.096;17.190;2024-01-15T06:43:59;98088.01;;;0.32;92.88
41706;BME280;27385;51.096;17.190;2024-01-15T06:46:50;98087.05;;;0.32;92.81
41706;BME280;27385;51.096;17.190;2024-01-15T06:49:41;98091.36;;;0.33;92.91
41706;BME280;27385;51.096;17.190;2024-01-15T06:52:32;98097.14;;;0.35;92.91
41706;BME280;27385;51.096;17.190;2024-01-15T06:55:22;98102.08;;;0.35;92.85
41706;BME280;27385;51.096;17.190;2024-01-15T06:58:13;98103.17;;;0.35;92.89
41706;BME280;27385;51.096;17.190;2024-01-15T07:01:04;98106.77;;;0.35;92.87
41706;BME280;27385;51.096;17.190;2024-01-15T07:03:55;98110.59;;;0.34;92.92
41706;BME280;27385;51.096;17.190;2024-01-15T07:06:46;98115.90;;;0.34;92.86
41706;BME280;27385;51.096;17.190;2024-01-15T07:09:38;98115.19;;;0.34;92.80
41706;BME280;27385;51.096;17.190;2024-01-15T07:12:29;98113.20;;;0.35;92.75
41706;BME280;27385;51.096;17.190;2024-01-15T07:15:20;98119.95;;;0.35;92.71
41706;BME280;27385;51.096;17.190;2024-01-15T07:18:11;98125.71;;;0.34;92.51
41706;BME280;27385;51.096;17.190;2024-01-15T07:21:02;98124.30;;;0.34;92.60
41706;BME280;27385;51.096;17.190;2024-01-15T07:23:53;98122.27;;;0.34;92.51
41706;BME280;27385;51.096;17.190;2024-01-15T07:26:45;98121.79;;;0.34;92.50
41706;BME280;27385;51.096;17.190;2024-01-15T07:29:36;98122.35;;;0.35;92.46
41706;BME280;27385;51.096;17.190;2024-01-15T07:32:28;98122.15;;;0.35;92.47
41706;BME280;27385;51.096;17.190;2024-01-15T07:35:19;98115.83;;;0.36;92.28
41706;BME280;27385;51.096;17.190;2024-01-15T07:38:10;98113.20;;;0.36;92.34
41706;BME280;27385;51.096;17.190;2024-01-15T07:41:01;98112.39;;;0.37;92.20
41706;BME280;27385;51.096;17.190;2024-01-15T07:43:53;98109.89;;;0.39;92.15
41706;BME280;27385;51.096;17.190;2024-01-15T07:46:46;98110.02;;;0.41;92.06
41706;BME280;27385;51.096;17.190;2024-01-15T07:49:37;98113.46;;;0.43;91.80
41706;BME280;27385;51.096;17.190;2024-01-15T07:52:29;98117.06;;;0.46;91.37
41706;BME280;27385;51.096;17.190;2024-01-15T07:55:20;98116.89;;;0.52;90.62
41706;BME280;27385;51.096;17.190;2024-01-15T07:58:11;98110.08;;;0.60;89.81
41706;BME280;27385;51.096;17.190;2024-01-15T08:01:02;98105.36;;;0.67;89.17
41706;BME280;27385;51.096;17.190;2024-01-15T08:03:54;98105.97;;;0.72;89.27
41706;BME280;27385;51.096;17.190;2024-01-15T08:06:44;98102.14;;;0.77;88.88
41706;BME280;27385;51.096;17.190;2024-01-15T08:09:35;98088.14;;;0.82;88.38
41706;BME280;27385;51.096;17.190;2024-01-15T08:12:26;98081.09;;;0.87;87.84
41706;BME280;27385;51.096;17.190;2024-01-15T08:15:17;98089.30;;;0.90;87.64
41706;BME280;27385;51.096;17.190;2024-01-15T08:18:08;98084.99;;;0.94;87.43
41706;BME280;27385;51.096;17.190;2024-01-15T08:20:59;98080.61;;;0.97;87.44
41706;BME280;27385;51.096;17.190;2024-01-15T08:23:50;98084.11;;;0.99;86.77
41706;BME280;27385;51.096;17.190;2024-01-15T08:26:41;98082.55;;;1.01;86.26
41706;BME280;27385;51.096;17.190;2024-01-15T08:29:32;98076.30;;;1.03;86.14
41706;BME280;27385;51.096;17.190;2024-01-15T08:32:24;98074.35;;;1.05;85.99
41706;BME280;27385;51.096;17.190;2024-01-15T08:35:15;98067.36;;;1.08;85.11
41706;BME280;27385;51.096;17.190;2024-01-15T08:38:06;98073.05;;;1.10;84.91
41706;BME280;27385;51.096;17.190;2024-01-15T08:40:56;98077.80;;;1.12;84.99
41706;BME280;27385;51.096;17.190;2024-01-15T08:43:49;98085.57;;;1.16;85.23
41706;BME280;27385;51.096;17.190;2024-01-15T08:46:42;98083.02;;;1.18;84.66
41706;BME280;27385;51.096;17.190;2024-01-15T08:49:33;98091.19;;;1.21;84.26
41706;BME280;27385;51.096;17.190;2024-01-15T08:52:25;98086.59;;;1.24;84.32
41706;BME280;27385;51.096;17.190;2024-01-15T08:55:16;98089.74;;;1.24;84.19
41706;BME280;27385;51.096;17.190;2024-01-15T08:58:07;98090.44;;;1.26;83.52
41706;BME280;27385;51.096;17.190;2024-01-15T09:00:58;98089.70;;;1.29;83.81
41706;BME280;27385;51.096;17.190;2024-01-15T09:03:47;98086.25;;;1.32;83.07
41706;BME280;27385;51.096;17.190;2024-01-15T09:06:38;98085.36;;;1.34;83.26
41706;BME280;27385;51.096;17.190;2024-01-15T09:09:27;98084.77;;;1.38;82.32
41706;BME280;27385;51.096;17.190;2024-01-15T09:12:18;98084.42;;;1.40;82.86
41706;BME280;27385;51.096;17.190;2024-01-15T09:15:11;98080.45;;;1.44;82.67
41706;BME280;27385;51.096;17.190;2024-01-15T09:18:01;98088.91;;;1.46;82.47
41706;BME280;27385;51.096;17.190;2024-01-15T09:20:52;98090.05;;;1.48;82.51
41706;BME280;27385;51.096;17.190;2024-01-15T09:23:44;98088.16;;;1.51;82.38
41706;BME280;27385;51.096;17.190;2024-01-15T09:26:42;98085.70;;;1.53;82.54
41706;BME280;27385;51.096;17.190;2024-01-15T09:29:33;98086.86;;;1.57;81.94
41706;BME280;27385;51.096;17.190;2024-01-15T09:32:26;98081.84;;;1.58;81.76
41706;BME280;27385;51.096;17.190;2024-01-15T09:35:17;98075.23;;;1.60;81.07
41706;BME280;27385;51.096;17.190;2024-01-15T09:38:10;98077.58;;;1.60;81.05
41706;BME280;27385;51.096;17.190;2024-01-15T09:41:01;98076.98;;;1.61;80.90
41706;BME280;27385;51.096;17.190;2024-01-15T09:43:50;98076.65;;;1.61;80.68
41706;BME280;27385;51.096;17.190;2024-01-15T09:46:42;98079.35;;;1.61;80.62
41706;BME280;27385;51.096;17.190;2024-01-15T09:49:34;98079.29;;;1.60;80.63
41706;BME280;27385;51.096;17.190;2024-01-15T09:52:25;98083.44;;;1.60;80.51
41706;BME280;27385;51.096;17.190;2024-01-15T09:55:17;98083.52;;;1.62;80.72
41706;BME280;27385;51.096;17.190;2024-01-15T09:58:08;98092.19;;;1.63;80.27
41706;BME280;27385;51.096;17.190;2024-01-15T10:01:01;98092.08;;;1.65;80.12
41706;BME280;27385;51.096;17.190;2024-01-15T10:03:55;98093.14;;;1.66;80.10
41706;BME280;27385;51.096;17.190;2024-01-15T10:06:47;98095.98;;;1.68;79.85
41706;BME280;27385;51.096;17.190;2024-01-15T10:09:41;98095.52;;;1.69;80.01
41706;BME280;27385;51.096;17.190;2024-01-15T10:12:30;98099.77;;;1.72;80.08
41706;BME280;27385;51.096;17.190;2024-01-15T10:15:23;98101.95;;;1.74;79.60
41706;BME280;27385;51.096;17.190;2024-01-15T10:18:15;98089.90;;;1.77;79.34
41706;BME280;27385;51.096;17.190;2024-01-15T10:21:07;98090.10;;;1.79;79.12
41706;BME280;27385;51.096;17.190;2024-01-15T10:23:58;98088.05;;;1.82;78.94
41706;BME280;27385;51.096;17.190;2024-01-15T10:26:51;98088.38;;;1.86;78.96
41706;BME280;27385;51.096;17.190;2024-01-15T10:29:42;98083.20;;;1.88;78.50
41706;BME280;27385;51.096;17.190;2024-01-15T10:32:33;98082.12;;;1.89;78.28
41706;BME280;27385;51.096;17.190;2024-01-15T10:35:28;98078.24;;;1.90;78.26
41706;BME280;27385;51.096;17.190;2024-01-15T10:38:24;98080.74;;;1.90;77.93
41706;BME280;27385;51.096;17.190;2024-01-15T10:41:15;98076.67;;;1.89;77.65
41706;BME280;27385;51.096;17.190;2024-01-15T10:44:06;98074.55;;;1.88;77.62
41706;BME280;27385;51.096;17.190;2024-01-15T10:46:58;98068.27;;;1.87;77.66
41706;BME280;27385;51.096;17.190;2024-01-15T10:49:49;98069.14;;;1.85;77.87
41706;BME280;27385;51.096;17.190;2024-01-15T10:52:41;98062.77;;;1.84;77.48
41706;BME280;27385;51.096;17.190;2024-01-15T10:55:33;98062.30;;;1.85;76.54
41706;BME280;27385;51.096;17.190;2024-01-15T10:58:26;98066.67;;;1.89;76.70
41706;BME280;27385;51.096;17.190;2024-01-15T11:01:22;98055.30;;;1.94;77.43
41706;BME280;27385;51.096;17.190;2024-01-15T11:04:13;98057.41;;;2.00;77.02
41706;BME280;27385;51.096;17.190;2024-01-15T11:07:06;98056.35;;;2.05;76.63
41706;BME280;27385;51.096;17.190;2024-01-15T11:09:58;98050.89;;;2.10;76.53
41706;BME280;27385;51.096;17.190;2024-01-15T11:12:52;98043.63;;;2.13;75.92
41706;BME280;27385;51.096;17.190;2024-01-15T11:16:00;98051.27;;;2.16;75.46
41706;BME280;27385;51.096;17.190;2024-01-15T11:19:04;98054.50;;;2.17;75.95
41706;BME280;27385;51.096;17.190;2024-01-15T11:21:57;98061.59;;;2.19;75.63
41706;BME280;27385;51.096;17.190;2024-01-15T11:24:48;98063.16;;;2.20;75.41
41706;BME280;27385;51.096;17.190;2024-01-15T11:27:43;98060.05;;;2.22;75.50
41706;BME280;27385;51.096;17.190;2024-01-15T11:30:33;98059.04;;;2.25;75.27
41706;BME280;27385;51.096;17.190;2024-01-15T11:33:35;98061.55;;;2.29;75.38
41706;BME280;27385;51.096;17.190;2024-01-15T11:39:47;98059.20;;;2.35;74.85
41706;BME280;27385;51.096;17.190;2024-01-15T11:42:37;98054.08;;;2.33;74.69
41706;BME280;27385;51.096;17.190;2024-01-15T11:45:29;98051.83;;;2.30;74.27
41706;BME280;27385;51.096;17.190;2024-01-15T11:48:21;98054.79;;;2.28;74.48
41706;BME280;27385;51.096;17.190;2024-01-15T11:51:18;98060.09;;;2.27;74.45
41706;BME280;27385;51.096;17.190;2024-01-15T11:54:10;98056.67;;;2.28;74.16
41706;BME280;27385;51.096;17.190;2024-01-15T11:57:07;98063.55;;;2.29;74.16
41706;BME280;27385;51.096;17.190;2024-01-15T12:00:00;98057.39;;;2.28;74.09
41706;BME280;27385;51.096;17.190;2024-01-15T12:03:02;98048.77;;;2.27;74.18
41706;BME280;27385;51.096;17.190;2024-01-15T12:05:56;98052.25;;;2.28;74.10
41706;BME280;27385;51.096;17.190;2024-01-15T12:08:48;98053.73;;;2.30;73.92
41706;BME280;27385;51.096;17.190;2024-01-15T12:11:42;98049.50;;;2.32;74.45
41706;BME280;27385;51.096;17.190;2024-01-15T12:14:40;98049.55;;;2.36;74.60
41706;BME280;27385;51.096;17.190;2024-01-15T12:17:31;98048.94;;;2.40;74.74
41706;BME280;27385;51.096;17.190;2024-01-15T12:20:21;98055.80;;;2.44;74.08
41706;BME280;27385;51.096;17.190;2024-01-15T12:23:13;98061.88;;;2.46;73.96
41706;BME280;27385;51.096;17.190;2024-01-15T12:26:04;98058.05;;;2.48;74.00
41706;BME280;27385;51.096;17.190;2024-01-15T12:28:55;98063.31;;;2.48;73.32
41706;BME280;27385;51.096;17.190;2024-01-15T12:31:50;98065.80;;;2.47;72.81
41706;BME280;27385;51.096;17.190;2024-01-15T12:34:41;98059.52;;;2.45;72.82
41706;BME280;27385;51.096;17.190;2024-01-15T12:37:36;98060.46;;;2.45;72.76
41706;BME280;27385;51.096;17.190;2024-01-15T12:40:27;98064.56;;;2.45;72.88
41706;BME280;27385;51.096;17.190;2024-01-15T12:43:16;98058.86;;;2.44;72.70
41706;BME280;27385;51.096;17.190;2024-01-15T12:46:07;98049.89;;;2.44;73.12
41706;BME280;27385;51.096;17.190;2024-01-15T12:48:58;98054.04;;;2.46;73.01
41706;BME280;27385;51.096;17.190;2024-01-15T12:51:56;98050.58;;;2.47;73.15
41706;BME280;27385;51.096;17.190;2024-01-15T12:54:47;98050.28;;;2.47;73.10
41706;BME280;27385;51.096;17.190;2024-01-15T12:57:42;98049.23;;;2.48;72.91
41706;BME280;27385;51.096;17.190;2024-01-15T13:00:34;98050.85;;;2.48;72.42
41706;BME280;27385;51.096;17.190;2024-01-15T13:03:23;98053.94;;;2.46;72.03
41706;BME280;27385;51.096;17.190;2024-01-15T13:06:14;98053.82;;;2.45;72.30
41706;BME280;27385;51.096;17.190;2024-01-15T13:09:03;98061.58;;;2.45;71.62
41706;BME280;27385;51.096;17.190;2024-01-15T13:11:55;98058.19;;;2.43;71.64
41706;BME280;27385;51.096;17.190;2024-01-15T13:14:46;98055.73;;;2.42;71.77
41706;BME280;27385;51.096;17.190;2024-01-15T13:17:37;98054.41;;;2.42;71.90
41706;BME280;27385;51.096;17.190;2024-01-15T13:20:26;98056.46;;;2.42;71.93
41706;BME280;27385;51.096;17.190;2024-01-15T13:23:17;98052.84;;;2.40;72.14
41706;BME280;27385;51.096;17.190;2024-01-15T13:26:06;98053.68;;;2.40;72.11
41706;BME280;27385;51.096;17.190;2024-01-15T13:28:57;98051.76;;;2.36;71.71
41706;BME280;27385;51.096;17.190;2024-01-15T13:31:46;98048.36;;;2.33;71.80
41706;BME280;27385;51.096;17.190;2024-01-15T13:34:36;98043.73;;;2.30;71.75
41706;BME280;27385;51.096;17.190;2024-01-15T13:37:26;98040.37;;;2.28;71.19
41706;BME280;27385;51.096;17.190;2024-01-15T13:40:16;98042.94;;;2.26;71.49
41706;BME280;27385;51.096;17.190;2024-01-15T13:43:10;98038.37;;;2.25;71.43
41706;BME280;27385;51.096;17.190;2024-01-15T13:46:01;98034.65;;;2.24;71.12
41706;BME280;27385;51.096;17.190;2024-01-15T13:48:54;98043.16;;;2.23;71.58
41706;BME280;27385;51.096;17.190;2024-01-15T13:51:45;98049.00;;;2.23;71.34
41706;BME280;27385;51.096;17.190;2024-01-15T13:54:36;98056.11;;;2.23;71.43
41706;BME280;27385;51.096;17.190;2024-01-15T13:57:29;98060.61;;;2.22;71.51
41706;BME280;27385;51.096;17.190;2024-01-15T14:00:21;98061.55;;;2.22;71.27
41706;BME280;27385;51.096;17.190;2024-01-15T14:03:12;98065.34;;;2.22;70.89
41706;BME280;27385;51.096;17.190;2024-01-15T14:06:04;98066.70;;;2.21;70.86
41706;BME280;27385;51.096;17.190;2024-01-15T14:08:58;98072.30;;;2.21;70.99
41706;BME280;27385;51.096;17.190;2024-01-15T14:11:49;98071.55;;;2.21;71.31
41706;BME280;27385;51.096;17.190;2024-01-15T14:14:40;98073.80;;;2.21;71.22
41706;BME280;27385;51.096;17.190;2024-01-15T14:17:31;98089.35;;;2.20;71.21
41706;BME280;27385;51.096;17.190;2024-01-15T14:20:22;98091.02;;;2.19;71.26
41706;BME280;27385;51.096;17.190;2024-01-15T14:23:14;98088.07;;;2.19;71.31
41706;BME280;27385;51.096;17.190;2024-01-15T14:26:05;98088.50;;;2.18;71.20
41706;BME280;27385;51.096;17.190;2024-01-15T14:28:56;98089.19;;;2.17;70.79
41706;BME280;27385;51.096;17.190;2024-01-15T14:31:48;98086.55;;;2.15;70.95
41706;BME280;27385;51.096;17.190;2024-01-15T14:34:39;98087.02;;;2.14;71.35
41706;BME280;27385;51.096;17.190;2024-01-15T14:37:29;98083.15;;;2.10;71.15
41706;BME280;27385;51.096;17.190;2024-01-15T14:40:21;98087.27;;;2.04;71.23
41706;BME280;27385;51.096;17.190;2024-01-15T14:43:12;98092.46;;;1.99;71.32
41706;BME280;27385;51.096;17.190;2024-01-15T14:46:03;98095.57;;;1.93;71.26
41706;BME280;27385;51.096;17.190;2024-01-15T14:48:55;98093.75;;;1.89;71.61
41706;BME280;27385;51.096;17.190;2024-01-15T14:51:46;98089.45;;;1.87;71.58
41706;BME280;27385;51.096;17.190;2024-01-15T14:54:38;98095.38;;;1.84;71.63
41706;BME280;27385;51.096;17.190;2024-01-15T14:57:29;98095.20;;;1.80;71.60
41706;BME280;27385;51.096;17.190;2024-01-15T15:00:20;98102.88;;;1.76;71.34
41706;BME280;27385;51.096;17.190;2024-01-15T15:03:12;98103.20;;;1.74;71.63
41706;BME280;27385;51.096;17.190;2024-01-15T15:06:05;98098.08;;;1.73;71.85
41706;BME280;27385;51.096;17.190;2024-01-15T15:08:57;98102.46;;;1.72;71.79
41706;BME280;27385;51.096;17.190;2024-01-15T15:11:49;98103.45;;;1.69;71.71